Time;durP1;ratioP1;P1;durP2;ratioP2;P2;SDS_P1;SDS_P2;PMS_P1;PMS_P2;Temp;Humidity;BMP_temperature;BMP_pressure;BME280_temperature;BME280_humidity;BME280_pressure;Samples;Min_cycle;Max_cycle;Signal;HPM_P1;HPM_P2
2023/09/10 00:01:07;;;;;;;;;;;;;;;21.29;28.78;98257.50;5040906;28;894;-79
2023/09/10 00:03:33;;;;;;;;;;;;;;;21.43;28.31;98252.81;5057314;28;914;-79
2023/09/10 00:06:03;;;;;;;;;;;;;;;21.33;28.74;98248.97;5041006;28;1346;-79
2023/09/10 00:08:28;;;;;;;;;;;;;;;21.57;28.31;98255.34;5041129;28;1014;-78
2023/09/10 00:10:54;;;;;;;;;;;;;;;21.62;28.09;98254.81;5040490;28;1218;-79
2023/09/10 00:13:19;;;;;;;;;;;;;;;21.53;28.20;98254.63;5040135;28;877;-78
2023/09/10 00:15:45;;;;;;;;;;;;;;;21.44;28.12;98254.41;5040607;28;1910;-78
2023/09/10 00:18:11;;;;;;;;;;;;;;;21.50;28.51;98255.47;5040420;28;798;-78
2023/09/10 00:20:37;;;;;;;;;;;;;;;21.60;28.05;98262.94;5040289;28;905;-78
2023/09/10 00:23:03;;;;;;;;;;;;;;;21.39;28.37;98258.53;5052832;28;944;-79
2023/09/10 00:25:28;;;;;;;;;;;;;;;21.54;28.38;98262.66;5058854;28;889;-78
2023/09/10 00:27:55;;;;;;;;;;;;;;;21.13;29.00;98251.00;5057999;28;1102;-79
2023/09/10 00:30:21;;;;;;;;;;;;;;;21.41;28.18;98258.91;5056605;28;1059;-79
2023/09/10 00:32:46;;;;;;;;;;;;;;;21.57;27.99;98258.16;5057447;28;915;-79
2023/09/10 00:35:12;;;;;;;;;;;;;;;21.57;27.96;98258.97;5058797;28;877;-79
2023/09/10 00:37:38;;;;;;;;;;;;;;;21.40;28.33;98262.16;5057709;28;1910;-79
2023/09/10 00:40:04;;;;;;;;;;;;;;;21.45;28.39;98258.81;5057640;28;1175;-79
2023/09/10 00:42:29;;;;;;;;;;;;;;;21.63;28.02;98256.41;5057782;28;1190;-78
2023/09/10 00:44:55;;;;;;;;;;;;;;;21.44;28.36;98265.72;5058994;28;933;-79
2023/09/10 00:47:21;;;;;;;;;;;;;;;21.51;28.36;98269.22;5073973;28;1174;-78
2023/09/10 00:49:48;;;;;;;;;;;;;;;21.39;28.38;98263.41;5057764;28;824;-78
2023/09/10 00:52:14;;;;;;;;;;;;;;;21.56;28.11;98267.91;5058619;28;867;-79
2023/09/10 00:54:40;;;;;;;;;;;;;;;21.46;28.37;98269.72;5057409;28;923;-78
2023/09/10 00:57:05;;;;;;;;;;;;;;;21.57;27.98;98261.78;5057636;28;1910;-78
2023/09/10 00:59:31;;;;;;;;;;;;;;;21.60;28.21;98274.25;5056074;28;1005;-79
2023/09/10 01:01:59;;;;;;;;;;;;;;;21.18;28.59;98268.25;5019955;28;1151;-78
2023/09/10 01:04:25;;;;;;;;;;;;;;;21.03;28.80;98275.44;5019426;28;989;-79
2023/09/10 01:06:51;;;;;;;;;;;;;;;21.32;28.68;98273.66;5020026;28;960;-78
2023/09/10 01:09:16;;;;;;;;;;;;;;;21.46;28.39;98268.94;4996473;28;1252;-78
2023/09/10 01:12:02;;;;;;;;;;;;;;;21.29;28.28;98266.00;4996594;28;1181;-79
2023/09/10 01:14:34;;;;;;;;;;;;;;;21.52;28.00;98272.84;4919353;29;1072;-79
2023/09/10 01:17:22;;;;;;;;;;;;;;;21.75;27.86;98274.75;4919542;29;1902;-78
2023/09/10 01:19:50;;;;;;;;;;;;;;;21.57;28.17;98275.16;4863278;29;1043;-79
2023/09/10 01:22:21;;;;;;;;;;;;;;;21.21;28.52;98273.06;4863397;29;1154;-79
2023/09/10 01:24:47;;;;;;;;;;;;;;;21.24;28.63;98277.84;4863253;29;1377;-79
2023/09/10 01:27:13;;;;;;;;;;;;;;;21.37;28.20;98277.22;4863318;29;1208;-79
2023/09/10 01:29:39;;;;;;;;;;;;;;;21.39;28.19;98271.91;4862987;29;1214;-79
2023/09/10 01:32:05;;;;;;;;;;;;;;;21.30;28.50;98281.78;4863159;29;1261;-78
2023/09/10 01:34:32;;;;;;;;;;;;;;;21.25;28.36;98270.97;4862885;29;1459;-79
2023/09/10 01:37:02;;;;;;;;;;;;;;;21.44;28.10;98280.69;4863159;29;1962;-79
2023/09/10 01:39:36;;;;;;;;;;;;;;;21.48;28.30;98269.28;4875132;29;1225;-79
2023/09/10 01:42:02;;;;;;;;;;;;;;;21.04;28.89;98271.41;4938362;29;1092;-78
2023/09/10 01:44:28;;;;;;;;;;;;;;;21.22;28.63;98271.81;4938089;29;1148;-79
2023/09/10 01:46:54;;;;;;;;;;;;;;;21.38;28.48;98275.97;4938141;29;1249;-79
2023/09/10 01:49:19;;;;;;;;;;;;;;;21.33;28.26;98280.09;4938163;29;1007;-78
2023/09/10 01:51:45;;;;;;;;;;;;;;;21.07;28.92;98281.81;4955627;28;1270;-79
2023/09/10 01:54:10;;;;;;;;;;;;;;;20.88;29.18;98277.78;4996139;28;1077;-79
2023/09/10 01:56:36;;;;;;;;;;;;;;;21.15;28.49;98271.97;5020769;28;1890;-78
2023/09/10 01:59:02;;;;;;;;;;;;;;;21.31;28.36;98277.72;5038404;28;1351;-78
2023/09/10 02:01:27;;;;;;;;;;;;;;;21.28;28.39;98270.06;5005677;28;1336;-79
2023/09/10 02:03:53;;;;;;;;;;;;;;;21.09;28.62;98273.72;5038328;28;1127;-79
2023/09/10 02:06:19;;;;;;;;;;;;;;;21.29;28.34;98274.50;5021970;28;1194;-79
2023/09/10 02:08:45;;;;;;;;;;;;;;;21.36;28.34;98272.78;5054913;28;1273;-79
2023/09/10 02:11:12;;;;;;;;;;;;;;;21.32;28.61;98272.88;5054715;28;1324;-79
2023/09/10 02:13:37;;;;;;;;;;;;;;;21.55;28.06;98271.94;5021739;28;896;-79
2023/09/10 02:16:03;;;;;;;;;;;;;;;21.36;28.28;98273.59;5021875;28;2095;-79
2023/09/10 02:18:30;;;;;;;;;;;;;;;21.03;28.80;98264.13;5038074;28;1395;-79
2023/09/10 02:20:55;;;;;;;;;;;;;;;21.04;29.01;98260.09;5038188;28;912;-78
2023/09/10 02:23:21;;;;;;;;;;;;;;;21.48;28.12;98266.44;5037512;28;1245;-78
2023/09/10 02:25:46;;;;;;;;;;;;;;;21.35;28.20;98262.69;5021659;28;1162;-79
2023/09/10 02:28:12;;;;;;;;;;;;;;;21.42;28.48;98265.38;5004989;28;1215;-78
2023/09/10 02:30:37;;;;;;;;;;;;;;;21.55;28.07;98264.28;5034426;28;1380;-79
2023/09/10 02:33:03;;;;;;;;;;;;;;;21.50;28.35;98263.97;5018148;28;1257;-79
2023/09/10 02:35:29;;;;;;;;;;;;;;;21.43;28.37;98259.28;5036243;28;1985;-79
2023/09/10 02:37:54;;;;;;;;;;;;;;;21.28;28.46;98270.06;5038087;28;1090;-79
2023/09/10 02:40:20;;;;;;;;;;;;;;;21.38;28.32;98259.00;5054518;28;1130;-79
2023/09/10 02:42:45;;;;;;;;;;;;;;;21.27;28.48;98268.47;5037836;28;1378;-79
2023/09/10 02:45:11;;;;;;;;;;;;;;;21.11;28.97;98262.75;5037919;28;1235;-78
2023/09/10 02:47:37;;;;;;;;;;;;;;;21.40;28.50;98270.66;5038082;28;1215;-79
2023/09/10 02:50:03;;;;;;;;;;;;;;;21.65;28.17;98265.25;5037613;28;972;-79
2023/09/10 02:52:30;;;;;;;;;;;;;;;21.44;28.37;98260.06;5017248;28;1138;-79
2023/09/10 02:54:59;;;;;;;;;;;;;;;21.28;28.38;98275.72;5001616;28;1170;-79
2023/09/10 02:57:24;;;;;;;;;;;;;;;21.11;28.91;98271.25;5001594;28;1911;-78
2023/09/10 02:59:50;;;;;;;;;;;;;;;21.11;28.65;98268.41;5014289;28;936;-79
2023/09/10 03:02:15;;;;;;;;;;;;;;;21.39;28.21;98274.72;4967082;28;1073;-78
2023/09/10 03:04:41;;;;;;;;;;;;;;;21.08;28.58;98272.09;4946383;28;934;-78
2023/09/10 03:07:06;;;;;;;;;;;;;;;21.26;28.52;98266.88;4994889;28;1293;-79
2023/09/10 03:09:32;;;;;;;;;;;;;;;21.23;28.61;98273.41;4994780;28;1226;-79
2023/09/10 03:12:17;;;;;;;;;;;;;;;21.25;28.38;98273.78;4994965;28;1202;-79
2023/09/10 03:14:44;;;;;;;;;;;;;;;21.23;28.46;98267.75;4994792;28;1199;-78
2023/09/10 03:17:10;;;;;;;;;;;;;;;21.50;28.17;98270.47;4994610;28;1910;-78
2023/09/10 03:19:37;;;;;;;;;;;;;;;21.39;28.50;98264.22;4978672;28;1261;-79
2023/09/10 03:22:03;;;;;;;;;;;;;;;21.43;28.43;98258.47;4994795;28;1177;-79
2023/09/10 03:24:28;;;;;;;;;;;;;;;21.12;28.77;98258.69;4994363;28;950;-78
2023/09/10 03:26:54;;;;;;;;;;;;;;;21.40;28.33;98265.81;4975117;28;1288;-79
2023/09/10 03:29:19;;;;;;;;;;;;;;;21.52;28.23;98264.34;4974861;28;1275;-78
2023/09/10 03:31:45;;;;;;;;;;;;;;;21.36;28.38;98267.13;4991437;28;1258;-79
2023/09/10 03:34:11;;;;;;;;;;;;;;;21.02;28.94;98268.97;4994550;28;1218;-79
2023/09/10 03:36:36;;;;;;;;;;;;;;;21.05;28.79;98273.78;4994039;28;1914;-78
2023/09/10 03:39:03;;;;;;;;;;;;;;;21.20;28.63;98268.63;4992353;28;1406;-79
2023/09/10 03:41:29;;;;;;;;;;;;;;;21.36;28.35;98275.63;4994287;28;1492;-79
2023/09/10 03:43:56;;;;;;;;;;;;;;;21.42;28.73;98273.88;4978629;28;937;-79
2023/09/10 03:46:22;;;;;;;;;;;;;;;21.10;28.79;98278.13;4994828;28;1467;-79
2023/09/10 03:48:47;;;;;;;;;;;;;;;20.93;29.25;98279.28;4978311;28;1272;-79
2023/09/10 03:51:13;;;;;;;;;;;;;;;21.06;29.08;98283.06;4994532;28;1195;-79
2023/09/10 03:53:39;;;;;;;;;;;;;;;21.29;28.52;98288.63;4977523;28;2042;-79
2023/09/10 03:56:05;;;;;;;;;;;;;;;21.45;28.51;98289.97;4978439;28;1931;-79
2023/09/10 03:58:30;;;;;;;;;;;;;;;21.19;29.02;98295.34;4978237;28;923;-79
2023/09/10 04:00:57;;;;;;;;;;;;;;;21.04;29.41;98288.38;4994401;28;1276;-78
2023/09/10 04:03:24;;;;;;;;;;;;;;;21.05;29.52;98292.78;4978352;28;1326;-78
2023/09/10 04:05:49;;;;;;;;;;;;;;;21.25;29.08;98287.94;4981846;28;946;-79
2023/09/10 04:08:15;;;;;;;;;;;;;;;21.15;29.49;98294.63;4981612;28;1239;-79
2023/09/10 04:10:41;;;;;;;;;;;;;;;21.26;29.50;98300.84;4979387;28;1395;-79
2023/09/10 04:13:06;;;;;;;;;;;;;;;21.20;29.44;98308.25;4997271;28;1450;-79
2023/09/10 04:15:32;;;;;;;;;;;;;;;21.33;29.09;98306.38;4985700;28;1917;-78
2023/09/10 04:17:57;;;;;;;;;;;;;;;21.27;28.96;98308.09;5018219;28;1268;-78
2023/09/10 04:20:23;;;;;;;;;;;;;;;21.57;28.55;98309.13;5000916;28;1270;-80
2023/09/10 04:22:48;;;;;;;;;;;;;;;21.39;29.15;98311.53;4999103;28;1061;-79
2023/09/10 04:25:14;;;;;;;;;;;;;;;21.33;29.18;98314.88;5020440;28;1146;-79
2023/09/10 04:27:39;;;;;;;;;;;;;;;21.10;29.41;98303.59;5036867;28;1331;-79
2023/09/10 04:30:05;;;;;;;;;;;;;;;21.40;28.89;98310.28;5017133;28;951;-79
2023/09/10 04:32:31;;;;;;;;;;;;;;;21.56;28.95;98318.88;4997367;28;1190;-79
2023/09/10 04:34:57;;;;;;;;;;;;;;;21.51;29.09;98316.56;4997339;28;959;-79
2023/09/10 04:37:22;;;;;;;;;;;;;;;21.36;29.37;98315.25;4981255;28;1979;-79
2023/09/10 04:39:48;;;;;;;;;;;;;;;21.37;29.48;98311.19;4977649;28;959;-79
2023/09/10 04:42:13;;;;;;;;;;;;;;;21.42;29.26;98319.16;4961372;28;1537;-79
2023/09/10 04:44:39;;;;;;;;;;;;;;;21.17;30.02;98320.44;4939312;29;1172;-79
2023/09/10 04:47:04;;;;;;;;;;;;;;;21.39;29.63;98322.84;4907586;29;1577;-79
2023/09/10 04:49:30;;;;;;;;;;;;;;;21.12;30.17;98320.94;4923480;29;930;-79
2023/09/10 04:51:55;;;;;;;;;;;;;;;21.46;29.31;98314.22;4923622;29;1188;-79
2023/09/10 04:54:21;;;;;;;;;;;;;;;21.10;29.72;98309.25;4901147;29;1086;-79
2023/09/10 04:56:53;;;;;;;;;;;;;;;21.21;29.69;98321.16;4880546;29;1988;-78
2023/09/10 04:59:19;;;;;;;;;;;;;;;21.40;29.45;98315.94;4859770;29;1788;-79
2023/09/10 05:01:45;;;;;;;;;;;;;;;21.32;29.60;98318.94;4863397;29;1384;-78
2023/09/10 05:04:11;;;;;;;;;;;;;;;21.46;29.08;98314.22;4848414;29;1441;-78
2023/09/10 05:06:36;;;;;;;;;;;;;;;21.23;29.67;98317.88;4850778;29;1276;-79
2023/09/10 05:09:02;;;;;;;;;;;;;;;21.19;29.68;98317.16;4884644;29;1244;-79
2023/09/10 05:11:28;;;;;;;;;;;;;;;21.28;29.43;98314.56;4915230;29;1214;-79
2023/09/10 05:13:54;;;;;;;;;;;;;;;21.11;29.98;98308.03;4915768;29;1510;-79
2023/09/10 05:16:19;;;;;;;;;;;;;;;21.16;29.98;98318.03;4903546;29;1964;-79
2023/09/10 05:18:47;;;;;;;;;;;;;;;21.40;29.82;98321.63;4935568;29;1063;-79
2023/09/10 05:21:12;;;;;;;;;;;;;;;21.41;29.90;98320.41;4957747;29;1262;-79
2023/09/10 05:23:39;;;;;;;;;;;;;;;21.28;30.13;98309.69;4957566;29;1442;-79
2023/09/10 05:26:05;;;;;;;;;;;;;;;21.28;29.98;98308.91;4989152;28;1291;-79
2023/09/10 05:28:31;;;;;;;;;;;;;;;21.26;30.08;98317.81;4997744;28;1562;-79
2023/09/10 05:30:56;;;;;;;;;;;;;;;21.29;29.93;98316.94;5018719;28;1393;-79
2023/09/10 05:33:22;;;;;;;;;;;;;;;21.22;30.17;98316.31;4984380;28;1213;-79
2023/09/10 05:35:55;;;;;;;;;;;;;;;21.39;29.90;98322.84;4980110;28;1968;-78
2023/09/10 05:38:21;;;;;;;;;;;;;;;21.56;29.85;98324.53;4964051;28;1092;-79
2023/09/10 05:40:46;;;;;;;;;;;;;;;21.61;29.55;98326.84;4964050;28;1234;-78
2023/09/10 05:43:12;;;;;;;;;;;;;;;21.26;30.36;98334.00;4963605;28;1435;-79
2023/09/10 05:45:37;;;;;;;;;;;;;;;21.53;30.23;98331.06;4980063;28;1336;-79
2023/09/10 05:48:03;;;;;;;;;;;;;;;21.44;30.15;98340.13;4980030;28;961;-78
2023/09/10 05:50:29;;;;;;;;;;;;;;;21.51;30.30;98339.19;4996013;28;1348;-79
2023/09/10 05:52:58;;;;;;;;;;;;;;;21.60;30.32;98330.91;4979995;28;1078;-78
2023/09/10 05:55:24;;;;;;;;;;;;;;;21.66;29.93;98340.50;4998818;28;939;-79
2023/09/10 05:57:51;;;;;;;;;;;;;;;21.47;30.54;98335.63;4985593;28;1956;-79
2023/09/10 06:00:16;;;;;;;;;;;;;;;21.44;30.39;98333.66;5035512;28;941;-79
2023/09/10 06:02:43;;;;;;;;;;;;;;;21.46;30.61;98339.72;4986695;28;1228;-79
2023/09/10 06:05:10;;;;;;;;;;;;;;;21.71;30.16;98347.66;5035342;28;1381;-78
2023/09/10 06:07:36;;;;;;;;;;;;;;;21.64;30.41;98354.28;5038492;28;1139;-79
2023/09/10 06:10:06;;;;;;;;;;;;;;;21.32;30.87;98350.06;5038131;28;1213;-79
2023/09/10 06:12:32;;;;;;;;;;;;;;;21.05;31.43;98349.38;5036544;28;1490;-80
2023/09/10 06:14:58;;;;;;;;;;;;;;;21.26;31.10;98345.34;5021693;28;1187;-78
2023/09/10 06:17:23;;;;;;;;;;;;;;;21.26;31.09;98348.97;5038941;28;1906;-79
2023/09/10 06:19:51;;;;;;;;;;;;;;;21.77;29.95;98355.22;5034301;28;1382;-79
2023/09/10 06:22:17;;;;;;;;;;;;;;;21.99;29.51;98354.75;4976507;28;1183;-78
2023/09/10 06:24:42;;;;;;;;;;;;;;;21.42;30.87;98353.13;4995565;28;968;-79
2023/09/10 06:27:08;;;;;;;;;;;;;;;21.61;30.73;98360.03;4978381;28;1422;-79
2023/09/10 06:29:34;;;;;;;;;;;;;;;21.45;31.13;98361.56;4976932;28;1530;-79
2023/09/10 06:31:59;;;;;;;;;;;;;;;21.43;31.08;98355.53;4979367;28;998;-78
2023/09/10 06:34:25;;;;;;;;;;;;;;;21.54;31.25;98363.78;4963207;28;1279;-79
2023/09/10 06:36:50;;;;;;;;;;;;;;;21.32;31.57;98367.06;4996025;28;1985;-79
2023/09/10 06:39:16;;;;;;;;;;;;;;;21.41;31.43;98357.22;4979101;28;851;-79
2023/09/10 06:41:41;;;;;;;;;;;;;;;21.28;31.61;98365.50;4962846;28;1051;-79
2023/09/10 06:44:07;;;;;;;;;;;;;;;21.11;32.16;98361.00;4962120;28;1408;-79
2023/09/10 06:46:33;;;;;;;;;;;;;;;21.63;30.96;98375.34;4975966;28;1233;-79
2023/09/10 06:48:59;;;;;;;;;;;;;;;21.49;31.20;98376.41;4959499;28;967;-79
2023/09/10 06:51:27;;;;;;;;;;;;;;;21.63;30.92;98378.19;4976537;28;1117;-79
2023/09/10 06:53:52;;;;;;;;;;;;;;;21.69;30.85;98376.41;5014473;28;1353;-79
2023/09/10 06:56:18;;;;;;;;;;;;;;;21.72;30.63;98375.56;5016134;28;1910;-79
2023/09/10 06:58:44;;;;;;;;;;;;;;;21.35;31.36;98387.22;5015989;28;1149;-79
2023/09/10 07:01:09;;;;;;;;;;;;;;;21.57;30.89;98382.75;5017524;28;782;-79
2023/09/10 07:03:35;;;;;;;;;;;;;;;21.23;31.70;98380.94;5028467;28;1257;-79
2023/09/10 07:06:04;;;;;;;;;;;;;;;21.51;31.27;98379.63;5019024;28;938;-78
2023/09/10 07:08:29;;;;;;;;;;;;;;;21.66;30.80;98374.47;5018844;28;981;-78
2023/09/10 07:10:55;;;;;;;;;;;;;;;21.85;30.39;98370.00;5045700;28;1136;-78
2023/09/10 07:13:21;;;;;;;;;;;;;;;21.58;30.82;98373.03;5054908;28;898;-78
2023/09/10 07:15:47;;;;;;;;;;;;;;;21.76;30.34;98376.28;5055239;28;1902;-79
2023/09/10 07:18:12;;;;;;;;;;;;;;;21.63;30.96;98383.84;5055963;28;1601;-79
2023/09/10 07:20:38;;;;;;;;;;;;;;;21.56;30.97;98392.50;5055713;28;915;-78
2023/09/10 07:23:03;;;;;;;;;;;;;;;21.48;31.14;98391.81;5056243;28;860;-80
2023/09/10 07:25:29;;;;;;;;;;;;;;;21.68;31.06;98394.66;5055310;28;937;-78
2023/09/10 07:27:54;;;;;;;;;;;;;;;21.95;30.46;98390.84;5038595;28;939;-79
2023/09/10 07:30:20;;;;;;;;;;;;;;;21.38;31.39;98384.34;5055512;28;881;-78
2023/09/10 07:32:46;;;;;;;;;;;;;;;21.48;31.03;98391.03;5038192;28;1496;-79
2023/09/10 07:35:12;;;;;;;;;;;;;;;21.30;31.44;98395.00;5038590;28;1011;-79
2023/09/10 07:37:37;;;;;;;;;;;;;;;21.73;30.73;98394.16;5056542;28;1981;-79
2023/09/10 07:40:03;;;;;;;;;;;;;;;21.51;30.94;98395.81;5060330;28;873;-79
2023/09/10 07:42:29;;;;;;;;;;;;;;;21.77;30.46;98392.03;5042855;28;1126;-78
2023/09/10 07:44:54;;;;;;;;;;;;;;;21.64;30.65;98391.09;5042156;28;1237;-79
2023/09/10 07:47:20;;;;;;;;;;;;;;;21.72;30.37;98389.72;5059524;28;1296;-79
2023/09/10 07:49:45;;;;;;;;;;;;;;;21.71;30.42;98387.31;5058511;28;826;-78
2023/09/10 07:52:11;;;;;;;;;;;;;;;21.49;30.92;98392.63;5037809;28;1089;-78
2023/09/10 07:54:36;;;;;;;;;;;;;;;21.45;31.15;98400.38;5021098;28;845;-78
2023/09/10 07:57:03;;;;;;;;;;;;;;;21.47;30.90;98395.09;5021051;28;1910;-78
2023/09/10 07:59:29;;;;;;;;;;;;;;;21.42;31.16;98389.94;5020843;28;972;-80
2023/09/10 08:01:54;;;;;;;;;;;;;;;21.51;30.83;98390.16;5019863;28;1495;-79
2023/09/10 08:04:20;;;;;;;;;;;;;;;21.56;30.83;98398.94;5020910;28;1151;-79
2023/09/10 08:06:46;;;;;;;;;;;;;;;21.73;30.50;98391.31;5036542;28;1493;-79
2023/09/10 08:09:11;;;;;;;;;;;;;;;21.75;30.49;98400.16;5020736;28;1216;-79
2023/09/10 08:11:37;;;;;;;;;;;;;;;21.46;30.89;98399.16;5020660;28;1254;-79
2023/09/10 08:14:03;;;;;;;;;;;;;;;21.46;30.81;98416.16;4997238;28;1488;-80
2023/09/10 08:16:28;;;;;;;;;;;;;;;21.51;30.64;98407.16;4997723;28;1906;-79
2023/09/10 08:18:54;;;;;;;;;;;;;;;21.62;30.82;98413.41;4997998;28;995;-79
2023/09/10 08:21:20;;;;;;;;;;;;;;;21.68;30.57;98405.97;4998048;28;825;-79
2023/09/10 08:23:47;;;;;;;;;;;;;;;21.77;30.05;98414.69;5026068;28;1479;-79
2023/09/10 08:26:13;;;;;;;;;;;;;;;21.37;30.92;98413.88;5004822;28;911;-78
2023/09/10 08:28:38;;;;;;;;;;;;;;;21.16;31.34;98417.09;5020327;28;1069;-79
2023/09/10 08:31:04;;;;;;;;;;;;;;;21.30;31.07;98420.47;5037001;28;899;-79
2023/09/10 08:33:29;;;;;;;;;;;;;;;21.79;30.13;98412.22;5020604;28;897;-79
2023/09/10 08:35:55;;;;;;;;;;;;;;;21.76;30.21;98412.28;5036790;28;1971;-79
2023/09/10 08:38:21;;;;;;;;;;;;;;;21.55;30.64;98403.03;5020244;28;929;-79
2023/09/10 08:40:49;;;;;;;;;;;;;;;21.65;30.25;98406.84;5003370;28;1373;-78
2023/09/10 08:43:15;;;;;;;;;;;;;;;21.97;29.92;98399.72;5036880;28;1542;-79
2023/09/10 08:45:41;;;;;;;;;;;;;;;21.53;30.88;98421.66;5020408;28;893;-78
2023/09/10 08:48:07;;;;;;;;;;;;;;;21.65;30.73;98412.50;5003921;28;1135;-78
2023/09/10 08:50:32;;;;;;;;;;;;;;;21.54;30.72;98417.59;5021897;28;915;-79
2023/09/10 08:52:58;;;;;;;;;;;;;;;21.68;30.40;98411.66;5019850;28;896;-79
2023/09/10 08:55:23;;;;;;;;;;;;;;;21.72;30.31;98411.59;5003279;28;1380;-79
2023/09/10 08:57:49;;;;;;;;;;;;;;;21.65;30.64;98429.50;5036426;28;1977;-79
2023/09/10 09:00:14;;;;;;;;;;;;;;;21.49;31.04;98415.25;5035978;28;1342;-78
2023/09/10 09:02:44;;;;;;;;;;;;;;;21.33;31.02;98419.59;5016224;28;1513;-79
2023/09/10 09:05:10;;;;;;;;;;;;;;;21.46;31.03;98416.16;4983942;28;1262;-79
2023/09/10 09:07:47;;;;;;;;;;;;;;;21.94;30.35;98418.38;5000433;28;903;-79
2023/09/10 09:10:15;;;;;;;;;;;;;;;21.83;30.19;98403.66;4984523;28;1124;-79
2023/09/10 09:12:41;;;;;;;;;;;;;;;21.74;30.56;98423.25;4979215;28;1494;-79
2023/09/10 09:15:07;;;;;;;;;;;;;;;21.81;30.59;98418.25;4960477;28;986;-79
2023/09/10 09:17:32;;;;;;;;;;;;;;;21.84;30.28;98414.53;4945198;28;1918;-79
2023/09/10 09:19:58;;;;;;;;;;;;;;;21.94;29.83;98417.59;4961151;28;866;-79
2023/09/10 09:22:23;;;;;;;;;;;;;;;22.02;30.14;98407.69;4945118;28;1027;-79
2023/09/10 09:24:49;;;;;;;;;;;;;;;21.75;30.65;98417.16;4961290;28;1017;-79
2023/09/10 09:27:15;;;;;;;;;;;;;;;21.46;31.04;98422.59;4975924;28;1391;-79
2023/09/10 09:29:40;;;;;;;;;;;;;;;21.45;30.96;98415.34;4977269;28;973;-78
2023/09/10 09:32:06;;;;;;;;;;;;;;;21.72;30.65;98412.38;4976969;28;1023;-79
2023/09/10 09:34:32;;;;;;;;;;;;;;;21.60;31.05;98421.50;4976633;28;892;-79
2023/09/10 09:36:57;;;;;;;;;;;;;;;21.70;30.81;98411.19;4960590;28;1907;-79
2023/09/10 09:39:23;;;;;;;;;;;;;;;21.72;30.58;98418.03;4977066;28;925;-79
2023/09/10 09:41:52;;;;;;;;;;;;;;;21.67;30.52;98415.72;4961502;28;1360;-79
2023/09/10 09:44:18;;;;;;;;;;;;;;;21.74;30.56;98407.06;5025144;28;1591;-79
2023/09/10 09:46:45;;;;;;;;;;;;;;;22.02;30.43;98408.50;5018546;28;1441;-79
2023/09/10 09:49:10;;;;;;;;;;;;;;;21.99;30.44;98408.56;5019302;28;938;-79
2023/09/10 09:51:38;;;;;;;;;;;;;;;21.97;30.34;98422.41;5021496;28;963;-79
2023/09/10 09:54:03;;;;;;;;;;;;;;;21.69;30.73;98396.25;5056521;28;940;-79
2023/09/10 09:56:29;;;;;;;;;;;;;;;21.33;31.28;98399.78;5034977;28;1985;-78
2023/09/10 09:58:58;;;;;;;;;;;;;;;21.63;30.93;98409.31;5018976;28;922;-79
2023/09/10 10:01:24;;;;;;;;;;;;;;;21.68;30.87;98400.31;5034421;28;1454;-79
2023/09/10 10:03:49;;;;;;;;;;;;;;;21.43;31.21;98405.69;5035408;28;1019;-79
2023/09/10 10:06:17;;;;;;;;;;;;;;;21.53;30.87;98404.69;5035833;28;876;-79
2023/09/10 10:08:49;;;;;;;;;;;;;;;21.56;31.06;98393.28;5035191;28;957;-79
2023/09/10 10:11:15;;;;;;;;;;;;;;;21.70;30.87;98397.03;5035014;28;1401;-79
2023/09/10 10:13:41;;;;;;;;;;;;;;;21.77;30.48;98397.72;5035150;28;852;-79
2023/09/10 10:16:06;;;;;;;;;;;;;;;21.59;30.88;98391.59;5025116;28;1910;-79
2023/09/10 10:18:32;;;;;;;;;;;;;;;21.78;30.63;98375.84;5014985;28;855;-79
2023/09/10 10:20:57;;;;;;;;;;;;;;;21.58;30.90;98390.00;4998742;28;1487;-79
2023/09/10 10:23:23;;;;;;;;;;;;;;;21.48;30.99;98388.19;4998496;28;975;-78
2023/09/10 10:25:48;;;;;;;;;;;;;;;21.71;30.56;98390.13;5015101;28;908;-79
2023/09/10 10:28:14;;;;;;;;;;;;;;;21.63;30.61;98397.19;5007802;28;953;-79
2023/09/10 10:30:42;;;;;;;;;;;;;;;21.41;31.34;98402.50;5005548;28;1327;-79
2023/09/10 10:33:08;;;;;;;;;;;;;;;21.71;30.77;98392.97;5034762;28;894;-79
2023/09/10 10:35:34;;;;;;;;;;;;;;;21.56;30.95;98400.97;4998412;28;1215;-79
2023/09/10 10:38:02;;;;;;;;;;;;;;;21.66;30.72;98396.31;4998171;28;1981;-79
2023/09/10 10:40:27;;;;;;;;;;;;;;;21.74;30.62;98392.91;4998585;28;1150;-79
2023/09/10 10:42:53;;;;;;;;;;;;;;;21.56;30.90;98400.97;4982040;28;1231;-79
2023/09/10 10:45:19;;;;;;;;;;;;;;;21.51;30.84;98390.16;4983514;28;1446;-79
2023/09/10 10:47:45;;;;;;;;;;;;;;;21.69;30.24;98384.91;5003781;28;1447;-78
2023/09/10 10:50:11;;;;;;;;;;;;;;;21.74;30.52;98387.25;5011193;28;1587;-79
2023/09/10 10:52:41;;;;;;;;;;;;;;;21.86;30.31;98391.44;5014646;28;993;-79
2023/09/10 10:55:07;;;;;;;;;;;;;;;21.69;30.47;98390.59;5014829;28;1033;-79
2023/09/10 10:57:33;;;;;;;;;;;;;;;21.46;30.95;98376.50;4998667;28;2038;-79
2023/09/10 10:59:58;;;;;;;;;;;;;;;21.71;30.72;98392.97;5014216;28;965;-79
2023/09/10 11:02:24;;;;;;;;;;;;;;;21.69;30.59;98367.13;5015053;28;1333;-79
2023/09/10 11:04:55;;;;;;;;;;;;;;;21.55;30.95;98379.53;5021007;28;1368;-79
2023/09/10 11:07:22;;;;;;;;;;;;;;;21.71;30.64;98376.81;5054155;28;988;-78
2023/09/10 11:09:48;;;;;;;;;;;;;;;21.71;30.72;98373.16;5037929;28;979;-79
2023/09/10 11:12:14;;;;;;;;;;;;;;;21.71;30.42;98373.97;5018202;28;1211;-78
2023/09/10 11:15:14;;;;;;;;;;;;;;;21.35;31.04;98370.25;5038294;28;820;-79
2023/09/10 11:17:40;;;;;;;;;;;;;;;21.85;30.13;98376.47;4979356;28;1923;-79
2023/09/10 11:20:06;;;;;;;;;;;;;;;21.59;30.61;98378.25;4978410;28;1461;-79
2023/09/10 11:23:08;;;;;;;;;;;;;;;21.71;30.48;98375.97;4963185;28;968;-79
2023/09/10 11:25:33;;;;;;;;;;;;;;;21.43;30.90;98369.69;4924889;29;1105;-79
2023/09/10 11:27:59;;;;;;;;;;;;;;;21.45;30.76;98369.22;4924807;29;902;-78
2023/09/10 11:30:25;;;;;;;;;;;;;;;21.85;30.29;98353.81;4909183;29;866;-79
2023/09/10 11:32:50;;;;;;;;;;;;;;;21.78;29.88;98370.97;4940435;29;982;-78
2023/09/10 11:35:19;;;;;;;;;;;;;;;21.83;30.08;98369.66;4915878;29;1492;-79
2023/09/10 11:37:47;;;;;;;;;;;;;;;22.01;29.81;98352.25;4940538;29;1979;-78
2023/09/10 11:40:13;;;;;;;;;;;;;;;21.51;30.51;98362.66;4940241;29;915;-79
2023/09/10 11:42:40;;;;;;;;;;;;;;;21.70;30.36;98346.84;4945844;29;894;-78
2023/09/10 11:45:06;;;;;;;;;;;;;;;21.45;30.89;98352.25;4959602;29;1574;-79
2023/09/10 11:47:33;;;;;;;;;;;;;;;21.60;30.63;98347.88;4959391;29;941;-78
2023/09/10 11:50:05;;;;;;;;;;;;;;;21.61;30.41;98349.50;4958189;29;1558;-78
2023/09/10 11:52:30;;;;;;;;;;;;;;;21.74;29.95;98352.47;4996206;28;1027;-79
2023/09/10 11:54:56;;;;;;;;;;;;;;;21.65;30.38;98330.38;5001350;28;983;-78
2023/09/10 11:57:22;;;;;;;;;;;;;;;21.91;29.91;98339.13;4962080;28;1902;-78
2023/09/10 11:59:50;;;;;;;;;;;;;;;21.63;30.53;98347.03;4999432;28;1013;-78
2023/09/10 12:02:16;;;;;;;;;;;;;;;21.64;30.44;98345.78;5037447;28;1230;-79
2023/09/10 12:04:42;;;;;;;;;;;;;;;21.33;30.67;98348.03;5036840;28;1450;-79
2023/09/10 12:07:07;;;;;;;;;;;;;;;21.80;30.09;98348.66;5021179;28;1038;-78
2023/09/10 12:09:33;;;;;;;;;;;;;;;21.69;30.40;98350.94;5037459;28;892;-79
2023/09/10 12:12:03;;;;;;;;;;;;;;;21.74;30.27;98349.63;5020446;28;1069;-79
2023/09/10 12:14:28;;;;;;;;;;;;;;;22.07;29.88;98342.81;5037230;28;967;-78
2023/09/10 12:16:54;;;;;;;;;;;;;;;21.76;30.23;98341.47;4984465;28;1985;-78
2023/09/10 12:19:19;;;;;;;;;;;;;;;21.52;30.40;98349.28;5000344;28;1357;-79
2023/09/10 12:21:45;;;;;;;;;;;;;;;21.55;30.35;98339.91;5001133;28;923;-79
2023/09/10 12:24:10;;;;;;;;;;;;;;;21.74;30.32;98341.91;4984079;28;1382;-79
2023/09/10 12:26:36;;;;;;;;;;;;;;;21.68;30.15;98338.00;5000658;28;942;-79
2023/09/10 12:29:03;;;;;;;;;;;;;;;21.69;30.13;98352.97;5031239;28;1116;-79
2023/09/10 12:31:29;;;;;;;;;;;;;;;21.51;30.73;98344.88;5040353;28;973;-79
2023/09/10 12:33:54;;;;;;;;;;;;;;;21.69;30.15;98339.59;5039291;28;1377;-78
2023/09/10 12:36:20;;;;;;;;;;;;;;;21.52;30.35;98341.59;4995904;28;1910;-79
2023/09/10 12:38:45;;;;;;;;;;;;;;;21.51;30.23;98336.38;4980658;28;1599;-79
2023/09/10 12:41:11;;;;;;;;;;;;;;;21.57;30.31;98335.41;4978543;28;936;-78
2023/09/10 12:43:36;;;;;;;;;;;;;;;21.72;29.84;98333.06;4978041;28;962;-78
2023/09/10 12:46:02;;;;;;;;;;;;;;;21.54;30.58;98335.47;4977861;28;899;-79
2023/09/10 12:48:27;;;;;;;;;;;;;;;21.56;30.64;98324.53;4985967;28;988;-79
2023/09/10 12:50:55;;;;;;;;;;;;;;;21.42;30.55;98330.50;4980729;28;1007;-79
2023/09/10 12:53:21;;;;;;;;;;;;;;;21.89;30.04;98333.13;4997391;28;1684;-78
2023/09/10 12:55:47;;;;;;;;;;;;;;;21.95;30.02;98325.69;4997305;28;915;-79